Time;durP1;ratioP1;P1;durP2;ratioP2;P2;SDS_P1;SDS_P2;PMS_P1;PMS_P2;Temp;Humidity;BMP_temperature;BMP_pressure;BME280_temperature;BME280_humidity;BME280_pressure;Samples;Min_cycle;Max_cycle;Signal;HPM_P1;HPM_P2
2023/06/28 00:01:31;;;;;;;8.93;3.40;;;;;;;19.03;83.88;101767.41;5056500;28;20390;-63
2023/06/28 00:03:59;;;;;;;7.65;3.50;;;;;;;19.02;84.41;101760.25;5064379;28;20045;-63
2023/06/28 00:06:27;;;;;;;10.63;3.42;;;;;;;19.01;83.40;101761.38;5059897;28;20090;-63
2023/06/28 00:08:54;;;;;;;8.77;3.40;;;;;;;18.99;82.53;101760.84;5075837;28;20097;-62
2023/06/28 00:11:22;;;;;;;9.10;3.30;;;;;;;18.99;82.59;101760.03;5075183;28;20044;-63
2023/06/28 00:13:50;;;;;;;9.43;3.47;;;;;;;18.98;82.25;101753.69;5074178;28;20053;-62
2023/06/28 00:16:18;;;;;;;10.85;3.83;;;;;;;19.00;81.65;101761.66;5075540;28;20061;-62
2023/06/28 00:18:46;;;;;;;7.75;3.10;;;;;;;18.97;82.01;101757.56;5075576;28;20410;-62
2023/06/28 00:21:13;;;;;;;10.40;3.33;;;;;;;18.99;82.51;101760.03;5076636;28;20040;-64
2023/06/28 00:23:42;;;;;;;9.18;3.45;;;;;;;19.01;81.55;101764.13;5065028;28;20520;-65
2023/06/28 00:26:10;;;;;;;9.00;3.60;;;;;;;19.00;80.51;101770.78;5071547;28;20082;-64
2023/06/28 00:28:38;;;;;;;7.05;3.05;;;;;;;18.98;79.78;101770.28;5068596;28;20053;-63
2023/06/28 00:31:09;;;;;;;11.00;3.40;;;;;;;18.96;79.92;101767.00;5065761;28;20048;-62
2023/06/28 00:33:37;;;;;;;8.93;3.20;;;;;;;18.92;79.95;101771.47;5079622;28;20048;-65
2023/06/28 00:36:05;;;;;;;6.82;3.25;;;;;;;18.89;81.30;101767.38;5066784;28;20051;-63
2023/06/28 00:38:34;;;;;;;8.38;3.38;;;;;;;18.88;82.08;101778.69;5075491;28;20052;-64
2023/06/28 00:41:04;;;;;;;11.25;3.80;;;;;;;18.86;82.38;101773.50;5045177;28;20060;-64
2023/06/28 00:43:33;;;;;;;10.38;3.45;;;;;;;18.86;82.01;101778.22;5063139;28;20049;-64
2023/06/28 00:46:01;;;;;;;9.82;3.50;;;;;;;18.86;82.00;101764.41;5098040;27;20059;-64
2023/06/28 00:48:29;;;;;;;9.48;3.53;;;;;;;18.86;81.69;101767.16;5115684;27;20058;-62
2023/06/28 00:50:56;;;;;;;8.50;3.20;;;;;;;18.87;80.48;101760.50;5113235;27;20040;-63
2023/06/28 00:53:24;;;;;;;6.53;2.88;;;;;;;18.88;79.67;101762.13;5094607;27;20100;-62
2023/06/28 00:55:53;;;;;;;8.40;3.10;;;;;;;18.86;80.00;101767.16;5099184;28;20076;-62
2023/06/28 00:58:21;;;;;;;8.07;2.92;;;;;;;18.83;80.75;101767.75;5116334;27;20054;-63
2023/06/28 01:00:49;;;;;;;10.60;3.25;;;;;;;18.83;81.59;101773.25;5114773;27;20046;-62
2023/06/28 01:03:19;;;;;;;8.55;3.33;;;;;;;18.84;82.14;101767.44;5106733;28;20480;-62
2023/06/28 01:05:51;;;;;;;7.53;3.22;;;;;;;18.86;82.02;101767.16;5094664;27;20407;-64
2023/06/28 01:08:19;;;;;;;4.63;2.67;;;;;;;18.85;82.20;101758.03;5102830;27;20047;-62
2023/06/28 01:10:47;;;;;;;7.63;2.95;;;;;;;18.82;82.17;101769.69;5095577;28;20105;-62
2023/06/28 01:13:15;;;;;;;7.05;2.88;;;;;;;18.78;82.75;101757.59;5095215;28;20044;-63
2023/06/28 01:15:43;;;;;;;8.32;2.75;;;;;;;18.78;83.17;101770.59;5066793;28;20040;-62
2023/06/28 01:18:11;;;;;;;6.43;2.65;;;;;;;18.80;83.01;101754.53;5114356;28;20047;-63
2023/06/28 01:20:39;;;;;;;6.85;2.78;;;;;;;18.81;83.51;101757.03;5115896;28;20047;-63
2023/06/28 01:23:07;;;;;;;7.22;2.88;;;;;;;18.82;83.87;101755.06;5105859;28;20039;-62
2023/06/28 01:25:36;;;;;;;7.32;2.78;;;;;;;18.80;83.93;101746.25;5103565;27;20083;-62
2023/06/28 01:28:04;;;;;;;7.47;2.92;;;;;;;18.80;84.03;101740.75;5134781;27;20042;-62
2023/06/28 01:30:37;;;;;;;6.57;2.75;;;;;;;18.85;84.09;101754.47;5136375;27;20043;-63
2023/06/28 01:33:05;;;;;;;9.23;2.70;;;;;;;18.87;84.63;101752.22;5118534;27;20048;-62
2023/06/28 01:35:33;;;;;;;5.03;2.65;;;;;;;18.91;84.75;101753.25;5099789;28;20047;-64
2023/06/28 01:38:01;;;;;;;8.75;2.90;;;;;;;18.91;85.02;101756.84;5112114;27;20046;-62
2023/06/28 01:40:35;;;;;;;6.30;2.78;;;;;;;18.91;85.29;101758.78;5114703;28;20495;-62
2023/06/28 01:43:07;;;;;;;7.78;2.63;;;;;;;18.88;85.17;101751.94;5113475;28;20044;-63
2023/06/28 01:45:35;;;;;;;6.53;2.47;;;;;;;18.88;84.47;101751.09;5109125;27;20056;-62
2023/06/28 01:48:05;;;;;;;7.68;2.83;;;;;;;18.88;84.02;101748.31;5098395;28;20476;-61
2023/06/28 01:50:33;;;;;;;8.75;2.55;;;;;;;18.88;83.63;101759.38;5112293;28;20046;-62
2023/06/28 01:53:03;;;;;;;4.63;2.30;;;;;;;18.87;83.07;101757.75;5093617;28;20048;-63
2023/06/28 01:55:31;;;;;;;9.63;2.53;;;;;;;18.86;83.39;101753.34;5106201;27;20468;-63
2023/06/28 01:57:58;;;;;;;11.18;3.58;;;;;;;18.86;83.55;101750.59;5113776;28;20081;-63
2023/06/28 02:00:26;;;;;;;5.20;2.60;;;;;;;18.84;84.12;101744.56;5113123;27;20047;-61
2023/06/28 02:02:54;;;;;;;4.55;2.20;;;;;;;18.83;85.10;101749.25;5092862;28;20071;-60
2023/06/28 02:05:22;;;;;;;9.02;2.83;;;;;;;18.81;85.55;101753.41;5101500;27;20110;-64
2023/06/28 02:07:50;;;;;;;7.95;2.88;;;;;;;18.80;85.89;101757.31;5109949;28;20047;-61
2023/06/28 02:10:20;;;;;;;8.40;2.83;;;;;;;18.80;86.07;101757.31;5122981;27;20067;-60
2023/06/28 02:12:50;;;;;;;6.22;2.58;;;;;;;18.82;86.35;101757.84;5129227;28;20471;-60
2023/06/28 02:15:19;;;;;;;9.23;3.00;;;;;;;18.81;86.77;101751.50;5087580;28;20048;-63
2023/06/28 02:17:47;;;;;;;7.22;2.72;;;;;;;18.81;87.14;101742.38;5105007;27;20044;-59
2023/06/28 02:20:15;;;;;;;6.28;2.78;;;;;;;18.79;87.03;101750.97;5102602;27;20229;-62
2023/06/28 02:22:43;;;;;;;8.20;2.72;;;;;;;18.73;87.58;101747.41;5112069;28;20044;-63
2023/06/28 02:25:11;;;;;;;8.75;2.92;;;;;;;18.69;87.65;101751.13;5114659;27;20049;-63
2023/06/28 02:27:40;;;;;;;5.93;2.65;;;;;;;18.63;88.04;101742.06;5103949;27;20058;-64
2023/06/28 02:30:08;;;;;;;7.45;3.05;;;;;;;18.60;88.82;101742.69;5115190;27;20047;-63
2023/06/28 02:32:36;;;;;;;7.00;3.03;;;;;;;18.62;89.30;101743.19;5106138;28;20047;-62
2023/06/28 02:35:05;;;;;;;8.50;3.10;;;;;;;18.61;88.75;101736.03;5094016;28;20040;-65
2023/06/28 02:37:33;;;;;;;8.73;3.33;;;;;;;18.62;88.04;101737.69;5109032;28;20044;-64
2023/06/28 02:40:02;;;;;;;8.27;3.00;;;;;;;18.61;87.39;101736.03;5107589;27;20510;-62
2023/06/28 02:42:30;;;;;;;7.65;2.42;;;;;;;18.62;87.16;101737.69;5096570;28;20500;-62
2023/06/28 02:44:58;;;;;;;8.32;3.05;;;;;;;18.65;88.05;101727.97;5111053;28;20132;-63
2023/06/28 02:47:26;;;;;;;9.02;3.30;;;;;;;18.62;90.04;101745.16;5111915;28;20040;-63
2023/06/28 02:49:53;;;;;;;5.85;2.63;;;;;;;18.58;89.82;101733.88;5083642;28;20047;-63
2023/06/28 02:52:21;;;;;;;7.78;3.08;;;;;;;18.57;90.21;101734.16;5099808;28;20065;-64
2023/06/28 02:54:50;;;;;;;9.43;3.60;;;;;;;18.55;89.60;101741.94;5111036;28;20051;-63
2023/06/28 02:57:18;;;;;;;8.68;3.33;;;;;;;18.53;88.95;101736.72;5096362;28;20040;-65
2023/06/28 02:59:56;;;;;;;7.90;3.38;;;;;;;18.49;88.28;101742.00;5125664;27;20495;-63
2023/06/28 03:02:24;;;;;;;7.60;2.92;;;;;;;18.45;88.75;101734.66;5111917;28;20109;-63
2023/06/28 03:04:52;;;;;;;9.18;3.25;;;;;;;18.42;89.08;101740.72;5113106;28;20047;-62
2023/06/28 03:07:20;;;;;;;10.18;3.30;;;;;;;18.39;89.97;101738.59;5113650;28;20096;-65
2023/06/28 03:09:50;;;;;;;6.45;3.20;;;;;;;18.38;90.71;101736.97;5096269;28;20052;-62
2023/06/28 03:12:18;;;;;;;7.82;2.95;;;;;;;18.38;91.11;101739.72;5112628;28;20047;-63
2023/06/28 03:14:46;;;;;;;7.55;3.17;;;;;;;18.34;91.20;101730.38;5106770;28;20052;-62
2023/06/28 03:17:14;;;;;;;11.88;3.38;;;;;;;18.26;91.33;101729.94;5102584;28;20048;-64
2023/06/28 03:19:41;;;;;;;6.82;2.95;;;;;;;18.21;91.49;101732.78;5114472;28;20036;-63
2023/06/28 03:22:09;;;;;;;7.70;2.97;;;;;;;18.16;91.53;101727.31;5121310;28;20039;-63
2023/06/28 03:24:37;;;;;;;9.73;3.42;;;;;;;18.14;92.86;101728.75;5095704;28;20048;-62
2023/06/28 03:27:05;;;;;;;8.27;3.20;;;;;;;18.16;92.67;101730.09;5113140;28;20048;-63
2023/06/28 03:29:33;;;;;;;7.38;3.33;;;;;;;18.17;92.67;101728.97;5113728;28;20046;-62
2023/06/28 03:32:02;;;;;;;7.40;3.33;;;;;;;18.13;93.98;101725.13;5111136;28;20042;-62
2023/06/28 03:34:30;;;;;;;6.85;3.40;;;;;;;18.12;94.30;101720.75;5113521;28;20046;-62
2023/06/28 03:36:58;;;;;;;9.25;3.35;;;;;;;18.12;94.77;101720.75;5113464;28;20089;-62
2023/06/28 03:39:33;;;;;;;8.60;3.70;;;;;;;18.13;95.18;101718.81;5101133;28;20398;-63
2023/06/28 03:42:01;;;;;;;9.10;3.25;;;;;;;18.12;95.31;101718.00;5109764;28;20499;-63
2023/06/28 03:44:29;;;;;;;6.32;3.13;;;;;;;18.13;94.75;101710.53;5112105;28;20048;-63
2023/06/28 03:46:56;;;;;;;8.20;3.50;;;;;;;18.11;94.59;101710.81;5112150;28;20035;-63
2023/06/28 03:49:24;;;;;;;10.40;3.75;;;;;;;18.08;95.25;101719.69;5091778;28;20050;-64
2023/06/28 03:51:52;;;;;;;7.82;3.20;;;;;;;18.06;95.31;101722.78;5103135;28;20068;-64
2023/06/28 03:54:20;;;;;;;8.00;3.55;;;;;;;18.06;95.31;101713.66;5112030;28;20056;-62
2023/06/28 03:56:49;;;;;;;8.70;3.30;;;;;;;18.00;96.48;101723.13;5112155;28;20039;-62
2023/06/28 03:59:17;;;;;;;6.85;3.10;;;;;;;17.99;97.02;101722.31;5113882;27;20099;-63
2023/06/28 04:01:45;;;;;;;7.75;3.33;;;;;;;18.03;96.85;101717.00;5105531;27;20049;-64
2023/06/28 04:04:16;;;;;;;9.30;3.65;;;;;;;18.00;97.11;101714.84;5114774;27;20040;-62
2023/06/28 04:06:44;;;;;;;9.23;3.20;;;;;;;18.00;97.98;101717.63;5115767;28;20042;-64
2023/06/28 04:09:12;;;;;;;8.93;3.65;;;;;;;18.00;97.80;101717.63;5099054;28;20052;-64
2023/06/28 04:11:40;;;;;;;8.45;3.72;;;;;;;17.96;98.14;101713.81;5095533;27;20055;-64
2023/06/28 04:14:08;;;;;;;9.10;3.80;;;;;;;17.97;98.62;101712.69;5114777;27;20040;-65
2023/06/28 04:16:36;;;;;;;10.77;3.42;;;;;;;18.01;97.94;101708.22;5115741;27;20043;-64
2023/06/28 04:19:05;;;;;;;9.40;3.58;;;;;;;18.04;98.45;101710.41;5117078;27;20064;-63
2023/06/28 04:21:33;;;;;;;8.10;3.67;;;;;;;18.06;98.63;101721.94;5109596;27;20408;-60
2023/06/28 04:24:02;;;;;;;8.18;3.63;;;;;;;18.06;98.95;101716.41;5112517;27;20043;-61
2023/06/28 04:26:30;;;;;;;9.07;3.50;;;;;;;18.06;99.20;101710.91;5094458;28;20036;-62
2023/06/28 04:28:58;;;;;;;7.65;3.53;;;;;;;18.07;100.00;101718.88;5108958;28;20048;-63
2023/06/28 04:31:25;;;;;;;8.35;3.97;;;;;;;18.07;99.33;101713.38;5105093;27;20060;-64
2023/06/28 04:33:57;;;;;;;7.95;3.83;;;;;;;18.04;99.24;101713.97;5109144;27;20048;-62
2023/06/28 04:36:25;;;;;;;7.18;3.60;;;;;;;17.99;100.00;101716.81;5115490;27;20047;-62
2023/06/28 04:38:54;;;;;;;8.43;3.72;;;;;;;17.92;100.00;101712.75;5111959;27;20055;-62
2023/06/28 04:41:25;;;;;;;8.25;3.65;;;;;;;17.92;100.00;101712.75;5107717;27;20058;-57
2023/06/28 04:43:57;;;;;;;9.50;4.30;;;;;;;17.94;100.00;101705.00;5117398;27;20050;-61
2023/06/28 04:46:32;;;;;;;10.20;4.05;;;;;;;17.88;100.00;101712.53;5119084;27;20054;-63
2023/06/28 04:49:00;;;;;;;11.20;4.28;;;;;;;17.82;100.00;101714.53;5114743;27;20047;-62
2023/06/28 04:51:29;;;;;;;9.10;4.25;;;;;;;17.82;100.00;101706.28;5113022;27;20054;-62
2023/06/28 04:53:58;;;;;;;11.57;4.38;;;;;;;17.80;100.00;101708.50;5113470;27;20055;-64
2023/06/28 04:56:28;;;;;;;8.90;4.10;;;;;;;17.77;100.00;101711.78;5111959;27;20113;-64
2023/06/28 04:58:56;;;;;;;8.63;4.03;;;;;;;17.79;100.00;101714.25;5118914;27;20040;-63
2023/06/28 05:01:23;;;;;;;13.02;4.30;;;;;;;17.82;100.00;101717.31;5110322;28;20032;-62
2023/06/28 05:03:51;;;;;;;9.30;4.20;;;;;;;17.86;100.00;101715.56;5096992;28;20052;-66
2023/06/28 05:06:19;;;;;;;11.27;4.63;;;;;;;17.91;100.00;101719.38;5114980;28;20475;-63
2023/06/28 05:08:47;;;;;;;9.88;4.20;;;;;;;17.97;100.00;101721.78;5132964;27;20491;-62
2023/06/28 05:11:15;;;;;;;9.48;3.58;;;;;;;18.03;100.00;101722.53;5125895;27;20435;-62
2023/06/28 05:13:43;;;;;;;9.88;3.50;;;;;;;18.07;100.00;101718.06;5124887;27;20078;-63
2023/06/28 05:16:11;;;;;;;11.27;4.50;;;;;;;18.19;99.54;101718.44;5094450;28;20044;-64
2023/06/28 05:18:38;;;;;;;6.43;3.67;;;;;;;18.19;99.66;101723.16;5093768;28;20040;-62
2023/06/28 05:21:06;;;;;;;10.15;3.97;;;;;;;18.19;99.32;101721.22;5096228;28;20048;-62
2023/06/28 05:23:34;;;;;;;9.70;4.18;;;;;;;18.19;100.00;101720.41;5094060;28;20089;-64
2023/06/28 05:26:03;;;;;;;10.65;4.20;;;;;;;18.20;99.93;101724.78;5095218;28;20044;-62
2023/06/28 05:28:30;;;;;;;7.93;4.20;;;;;;;18.18;100.00;101722.31;5093584;28;20044;-59
2023/06/28 05:30:58;;;;;;;12.35;4.65;;;;;;;18.15;100.00;101720.16;5100075;28;20088;-63
2023/06/28 05:33:26;;;;;;;7.25;3.60;;;;;;;18.14;100.00;101717.72;5108402;27;20123;-62
2023/06/28 05:35:54;;;;;;;9.13;3.70;;;;;;;18.12;100.00;101720.75;5111788;27;20037;-61
2023/06/28 05:38:22;;;;;;;16.67;5.07;;;;;;;18.11;100.00;101716.34;5111857;27;20052;-64
2023/06/28 05:40:55;;;;;;;10.55;4.00;;;;;;;18.10;100.00;101722.97;5106887;28;20048;-64
2023/06/28 05:43:22;;;;;;;8.88;3.75;;;;;;;18.10;100.00;101717.47;5093662;28;20043;-63
2023/06/28 05:45:50;;;;;;;7.78;3.63;;;;;;;18.08;100.00;101714.19;4391387;28;10000331;-65
2023/06/28 05:48:18;;;;;;;9.70;4.00;;;;;;;18.07;100.00;101709.78;5095406;27;20047;-64
2023/06/28 05:50:46;;;;;;;9.07;3.38;;;;;;;18.06;100.00;101706.22;5096512;28;20052;-65
2023/06/28 05:53:14;;;;;;;14.32;5.15;;;;;;;18.02;100.00;101705.16;5091319;28;20476;-63
2023/06/28 05:55:42;;;;;;;10.07;4.65;;;;;;;18.01;100.00;101709.03;5107839;27;20051;-65
2023/06/28 05:58:10;;;;;;;10.02;4.90;;;;;;;18.02;100.00;101707.13;5110687;28;20054;-64
2023/06/28 06:00:38;;;;;;;10.43;4.55;;;;;;;18.02;100.00;101704.34;5108355;28;20755;-64
2023/06/28 06:03:05;;;;;;;11.45;4.80;;;;;;;18.03;100.00;101706.78;5111540;28;20047;-63
2023/06/28 06:05:33;;;;;;;12.43;4.55;;;;;;;18.01;100.00;101705.47;5109267;28;20051;-63
2023/06/28 06:08:01;;;;;;;12.43;4.88;;;;;;;18.00;100.00;101701.06;5120783;27;20071;-63
2023/06/28 06:10:30;;;;;;;13.80;5.20;;;;;;;18.02;100.00;101705.16;5116483;27;20057;-64
2023/06/28 06:12:57;;;;;;;10.18;4.75;;;;;;;18.07;100.00;101704.28;5111532;28;20120;-63
2023/06/28 06:15:25;;;;;;;10.02;4.28;;;;;;;18.08;100.00;101708.66;5111572;27;20051;-63
2023/06/28 06:17:53;;;;;;;8.02;4.20;;;;;;;18.08;100.00;101705.91;5103478;28;20044;-64
2023/06/28 06:20:21;;;;;;;16.15;5.13;;;;;;;18.09;100.00;101708.38;5107342;28;20069;-63
2023/06/28 06:22:49;;;;;;;11.43;5.57;;;;;;;18.09;100.00;101704.81;5109128;28;20126;-61
2023/06/28 06:25:18;;;;;;;14.00;5.75;;;;;;;18.06;100.00;101711.75;5107014;28;20543;-62
2023/06/28 06:27:45;;;;;;;11.90;4.63;;;;;;;18.06;100.00;101710.91;5133878;27;20043;-64
2023/06/28 06:30:13;;;;;;;13.35;5.30;;;;;;;18.07;100.00;101709.78;5120248;27;20043;-59
2023/06/28 06:32:42;;;;;;;11.82;4.75;;;;;;;18.06;100.00;101706.22;5107073;28;20122;-62
2023/06/28 06:35:09;;;;;;;12.52;4.95;;;;;;;18.06;100.00;101705.38;5124039;27;20050;-63
2023/06/28 06:37:37;;;;;;;13.85;5.60;;;;;;;18.10;100.00;101707.25;5116188;27;20119;-61
2023/06/28 06:40:06;;;;;;;18.55;5.15;;;;;;;18.13;100.00;101711.34;5109191;28;20111;-63
2023/06/28 06:42:34;;;;;;;12.63;5.18;;;;;;;18.14;100.00;101706.69;5116727;28;20195;-63
2023/06/28 06:45:02;;;;;;;19.38;6.05;;;;;;;18.11;100.00;101708.06;5110225;28;20059;-64
2023/06/28 06:47:30;;;;;;;14.05;5.55;;;;;;;18.08;100.00;101701.22;5112200;27;20051;-63
2023/06/28 06:49:58;;;;;;;12.18;5.60;;;;;;;18.05;100.00;101704.56;5116648;27;20109;-65
2023/06/28 06:52:26;;;;;;;17.42;5.63;;;;;;;18.06;100.00;101699.88;5110307;28;20047;-64
2023/06/28 06:54:54;;;;;;;11.38;5.07;;;;;;;18.11;100.00;101705.31;5111139;28;20048;-64
2023/06/28 06:57:22;;;;;;;11.93;5.85;;;;;;;18.11;100.00;101713.59;5114382;27;20043;-63
2023/06/28 06:59:49;;;;;;;12.05;5.93;;;;;;;18.12;100.00;101709.72;5107050;28;20502;-64
2023/06/28 07:02:19;;;;;;;13.40;5.85;;;;;;;18.13;100.00;101705.03;5110099;28;20436;-64
2023/06/28 07:04:47;;;;;;;11.20;5.38;;;;;;;18.14;100.00;101707.50;5126949;28;20103;-64
2023/06/28 07:07:15;;;;;;;11.45;5.20;;;;;;;18.16;100.00;101705.25;5129967;28;20047;-63
2023/06/28 07:09:43;;;;;;;17.88;5.50;;;;;;;18.20;100.00;101705.47;5109398;28;20058;-63
2023/06/28 07:12:11;;;;;;;12.20;6.03;;;;;;;18.19;100.00;101707.41;5096298;28;20392;-64
2023/06/28 07:14:39;;;;;;;13.38;5.53;;;;;;;18.20;100.00;101705.47;5111509;28;20047;-63
2023/06/28 07:17:07;;;;;;;9.02;4.68;;;;;;;18.15;100.00;101714.63;5113024;28;20050;-63
2023/06/28 07:19:35;;;;;;;14.30;5.38;;;;;;;18.13;100.00;101716.06;5111386;28;20046;-63
2023/06/28 07:22:03;;;;;;;10.27;4.68;;;;;;;18.14;100.00;101709.44;5097032;28;20116;-62
2023/06/28 07:24:31;;;;;;;10.25;4.80;;;;;;;18.15;100.00;101717.41;5113746;28;20051;-63
2023/06/28 07:26:59;;;;;;;11.43;5.50;;;;;;;18.16;100.00;101719.06;5113292;28;20051;-62
2023/06/28 07:29:27;;;;;;;16.55;5.80;;;;;;;18.14;100.00;101718.53;5100702;28;20389;-63
2023/06/28 07:31:55;;;;;;;11.32;4.65;;;;;;;18.13;100.00;101714.09;5093481;28;20048;-62
2023/06/28 07:34:23;;;;;;;10.32;4.85;;;;;;;18.14;100.00;101710.25;5097355;28;20359;-62
2023/06/28 07:36:51;;;;;;;10.50;4.72;;;;;;;18.18;100.00;101714.03;5097742;28;20044;-63
2023/06/28 07:39:19;;;;;;;13.60;5.25;;;;;;;18.22;100.00;101711.50;5098471;28;20068;-63
2023/06/28 07:41:47;;;;;;;10.63;4.78;;;;;;;18.25;100.00;101716.44;5097571;28;20040;-64
2023/06/28 07:44:14;;;;;;;11.23;4.40;;;;;;;18.22;100.00;101717.84;5097255;28;20052;-64
2023/06/28 07:46:42;;;;;;;12.05;5.07;;;;;;;18.23;100.00;101707.63;5096197;28;20552;-62
2023/06/28 07:49:10;;;;;;;15.57;5.38;;;;;;;18.24;100.00;101712.84;5107928;28;20046;-62
2023/06/28 07:51:38;;;;;;;10.23;4.53;;;;;;;18.21;100.00;101712.66;5116933;28;20058;-63
2023/06/28 07:54:06;;;;;;;13.13;5.22;;;;;;;18.17;100.00;101717.91;5116282;28;20372;-64
2023/06/28 07:56:43;;;;;;;9.10;4.68;;;;;;;18.15;100.00;101717.41;5116699;28;20399;-63
2023/06/28 07:59:11;;;;;;;11.15;4.85;;;;;;;18.17;100.00;101722.63;5108115;28;20054;-65
2023/06/28 08:01:38;;;;;;;10.43;5.00;;;;;;;18.20;100.00;101717.31;5095658;28;20400;-62
2023/06/28 08:04:06;;;;;;;11.88;5.05;;;;;;;18.22;100.00;101715.09;5097037;28;20055;-63
2023/06/28 08:06:34;;;;;;;14.05;5.80;;;;;;;18.23;100.00;101714.00;5096058;28;20052;-63
2023/06/28 08:09:02;;;;;;;15.15;5.95;;;;;;;18.27;100.00;101716.94;5108528;28;20040;-63
2023/06/28 08:11:30;;;;;;;12.52;5.68;;;;;;;18.32;100.00;101711.34;5116813;28;20055;-64
2023/06/28 08:13:58;;;;;;;12.68;5.28;;;;;;;18.37;100.00;101718.75;5117454;28;20056;-61
2023/06/28 08:16:26;;;;;;;9.60;5.20;;;;;;;18.39;100.00;101714.56;5117387;28;20066;-64
2023/06/28 08:18:53;;;;;;;10.10;5.38;;;;;;;18.38;100.00;101718.44;5117102;28;20092;-63
2023/06/28 08:21:21;;;;;;;11.45;5.72;;;;;;;18.37;100.00;101710.47;5117229;28;20047;-63
2023/06/28 08:23:49;;;;;;;11.52;5.80;;;;;;;18.36;100.00;101714.34;5117734;28;20051;-63
2023/06/28 08:26:17;;;;;;;11.43;5.13;;;;;;;18.37;100.00;101711.28;5117876;28;20119;-62
2023/06/28 08:28:45;;;;;;;12.73;5.40;;;;;;;18.39;100.00;101719.28;5104412;28;20403;-63
2023/06/28 08:31:28;;;;;;;11.00;4.85;;;;;;;18.38;100.00;101717.63;5096639;28;20052;-62
2023/06/28 08:33:58;;;;;;;14.82;5.25;;;;;;;18.39;100.00;101713.75;5095269;28;20044;-63
2023/06/28 08:36:27;;;;;;;12.90;5.18;;;;;;;18.41;100.00;101722.56;5096475;28;20044;-63
2023/06/28 08:38:55;;;;;;;11.52;4.57;;;;;;;18.41;100.00;101717.03;5104979;28;20407;-63
2023/06/28 08:41:24;;;;;;;12.15;4.90;;;;;;;18.41;100.00;101717.84;5116957;28;20055;-64
2023/06/28 08:43:52;;;;;;;8.50;4.68;;;;;;;18.42;100.00;101724.19;5116438;28;20044;-63
2023/06/28 08:46:21;;;;;;;9.02;4.40;;;;;;;18.44;100.00;101721.94;5117229;28;20496;-63
2023/06/28 08:48:51;;;;;;;11.85;4.63;;;;;;;18.43;100.00;101720.31;5101175;28;20043;-64
2023/06/28 08:51:19;;;;;;;11.10;5.10;;;;;;;18.43;100.00;101714.81;5095003;28;20044;-64
2023/06/28 08:53:48;;;;;;;11.23;4.50;;;;;;;18.44;100.00;101713.66;5062155;28;20093;-64
2023/06/28 08:56:16;;;;;;;8.50;4.70;;;;;;;18.45;100.00;101712.56;5095706;28;20052;-62
2023/06/28 08:58:48;;;;;;;14.13;4.82;;;;;;;18.47;99.94;101713.06;5096482;28;20052;-62
2023/06/28 09:01:16;;;;;;;13.05;5.50;;;;;;;18.50;99.44;101713.28;5096222;28;20488;-64
2023/06/28 09:03:44;;;;;;;9.27;4.28;;;;;;;18.55;98.56;101714.34;5096011;28;20127;-63
2023/06/28 09:06:12;;;;;;;10.23;4.70;;;;;;;18.57;97.31;101710.16;5110466;28;20113;-63
2023/06/28 09:08:40;;;;;;;10.52;4.40;;;;;;;18.61;96.90;101711.19;5104493;28;20043;-61
2023/06/28 09:11:08;;;;;;;13.50;4.88;;;;;;;18.61;96.45;101705.66;5116045;28;20040;-62
2023/06/28 09:13:36;;;;;;;13.50;4.90;;;;;;;18.63;95.71;101702.59;5116230;28;20045;-62
2023/06/28 09:16:09;;;;;;;10.45;4.68;;;;;;;18.62;95.11;101707.31;5115084;28;20051;-64
2023/06/28 09:18:37;;;;;;;10.70;4.40;;;;;;;18.63;95.41;101703.44;5115557;28;20423;-63
2023/06/28 09:21:05;;;;;;;9.43;4.38;;;;;;;18.63;95.19;101703.44;5115770;28;20479;-63
2023/06/28 09:23:34;;;;;;;12.93;4.85;;;;;;;18.64;94.43;101705.09;5111702;28;20036;-62
2023/06/28 09:26:02;;;;;;;10.70;4.50;;;;;;;18.63;94.41;101697.91;5094957;28;20105;-62
2023/06/28 09:28:35;;;;;;;12.93;5.15;;;;;;;18.62;94.37;101701.78;5101370;28;20043;-63
2023/06/28 09:31:06;;;;;;;11.38;4.97;;;;;;;18.64;94.60;101705.09;5115254;28;20047;-63
2023/06/28 09:33:34;;;;;;;10.65;4.57;;;;;;;18.65;94.59;101703.13;5114467;28;20062;-64
2023/06/28 09:36:02;;;;;;;13.85;4.80;;;;;;;18.64;94.59;101705.09;5115544;28;20548;-61
2023/06/28 09:38:30;;;;;;;12.63;4.97;;;;;;;18.66;94.82;101699.25;5100914;28;20488;-62
2023/06/28 09:41:00;;;;;;;13.18;5.20;;;;;;;18.67;94.93;101710.00;5094001;28;20066;-62
2023/06/28 09:43:35;;;;;;;12.43;5.20;;;;;;;18.68;95.24;101711.63;5099416;28;20532;-64
2023/06/28 09:46:14;;;;;;;13.32;4.80;;;;;;;18.71;95.26;101713.78;5103840;28;20056;-62
2023/06/28 09:48:44;;;;;;;12.88;4.93;;;;;;;18.73;95.34;101707.97;5095117;28;20048;-61
2023/06/28 09:51:12;;;;;;;11.70;5.03;;;;;;;18.77;95.06;101708.22;5093850;28;20070;-63
2023/06/28 09:53:48;;;;;;;13.40;4.75;;;;;;;18.79;94.92;101705.97;5093732;28;20052;-63
2023/06/28 09:56:16;;;;;;;11.77;4.80;;;;;;;18.83;94.82;101701.47;5096123;28;20484;-63
2023/06/28 09:58:48;;;;;;;10.95;4.75;;;;;;;18.86;94.49;101707.22;5093134;28;20044;-64
2023/06/28 10:01:16;;;;;;;11.30;4.68;;;;;;;18.90;94.01;101701.91;5094989;28;20048;-62
2023/06/28 10:03:44;;;;;;;9.82;4.63;;;;;;;18.94;94.19;101695.47;5093644;28;20040;-64
2023/06/28 10:06:13;;;;;;;11.57;5.38;;;;;;;18.96;94.10;101695.19;5094084;28;20508;-63
2023/06/28 10:08:41;;;;;;;14.07;4.78;;;;;;;19.00;94.03;101700.91;5093675;28;20096;-64
2023/06/28 10:11:13;;;;;;;12.32;5.22;;;;;;;19.05;93.77;101698.88;5094586;28;20040;-64
2023/06/28 10:13:41;;;;;;;11.23;5.00;;;;;;;19.08;93.32;101695.50;5094704;28;20568;-62
2023/06/28 10:16:12;;;;;;;15.57;5.20;;;;;;;19.14;93.00;101687.94;5094036;28;20040;-61
2023/06/28 10:18:42;;;;;;;10.68;4.65;;;;;;;19.20;92.18;101691.44;5076431;28;20054;-63
2023/06/28 10:21:10;;;;;;;9.80;5.05;;;;;;;19.23;91.23;101693.59;5094019;28;20464;-63
2023/06/28 10:23:39;;;;;;;11.05;4.78;;;;;;;19.27;91.89;101694.63;5094856;28;20036;-62
2023/06/28 10:26:08;;;;;;;9.30;4.43;;;;;;;19.39;91.82;101686.66;5094695;28;20048;-64
2023/06/28 10:28:36;;;;;;;11.98;5.43;;;;;;;19.50;91.53;101682.53;5093085;28;20052;-63
2023/06/28 10:31:05;;;;;;;12.43;5.05;;;;;;;19.57;90.71;101682.94;5093415;28;20454;-64
2023/06/28 10:33:36;;;;;;;11.32;5.18;;;;;;;19.62;90.98;101687.53;5094312;28;20039;-64
2023/06/28 10:36:04;;;;;;;14.98;4.82;;;;;;;19.69;89.75;101673.34;5115688;28;20047;-64
2023/06/28 10:38:44;;;;;;;12.45;4.85;;;;;;;19.73;89.97;101682.66;5115685;28;20043;-62
2023/06/28 10:41:16;;;;;;;8.02;4.80;;;;;;;19.78;90.27;101685.31;5115161;28;20060;-62
2023/06/28 10:43:44;;;;;;;14.27;5.38;;;;;;;19.86;89.12;101681.00;5109454;28;20103;-59
2023/06/28 10:46:23;;;;;;;16.30;5.15;;;;;;;19.88;88.38;101679.56;5111621;28;20141;-62
2023/06/28 10:48:55;;;;;;;13.82;5.85;;;;;;;19.89;88.29;101678.44;5109617;28;20066;-62
2023/06/28 10:51:27;;;;;;;15.10;5.32;;;;;;;19.90;88.76;101679.25;5098208;28;20122;-64
2023/06/28 10:54:12;;;;;;;11.13;5.25;;;;;;;19.93;89.01;101684.97;5109203;28;20126;-61
2023/06/28 10:56:50;;;;;;;12.63;5.20;;;;;;;19.96;88.92;101678.84;5126741;28;20093;-64
2023/06/28 10:59:18;;;;;;;10.98;5.07;;;;;;;20.02;88.65;101681.50;5114941;28;20454;-63
2023/06/28 11:01:49;;;;;;;13.68;5.05;;;;;;;20.07;88.26;101686.91;5114617;28;20066;-64
2023/06/28 11:04:22;;;;;;;11.25;4.80;;;;;;;20.13;86.73;101680.94;5094846;28;20399;-63
2023/06/28 11:07:10;;;;;;;12.80;5.25;;;;;;;20.22;86.32;101675.47;5092774;28;20040;-63
2023/06/28 11:09:38;;;;;;;11.90;5.20;;;;;;;20.29;86.00;101675.84;5092787;28;20075;-63
2023/06/28 11:12:14;;;;;;;12.00;4.95;;;;;;;20.33;85.37;101665.00;5093218;28;20096;-63
2023/06/28 11:14:42;;;;;;;8.93;4.15;;;;;;;20.36;84.54;101665.16;5093756;28;20086;-63
2023/06/28 11:17:14;;;;;;;10.82;4.15;;;;;;;20.39;84.27;101670.06;5094027;28;20096;-63
2023/06/28 11:19:43;;;;;;;11.35;4.50;;;;;;;20.52;82.90;101662.03;5092884;28;20044;-62
2023/06/28 11:22:12;;;;;;;12.35;5.38;;;;;;;20.54;83.57;101659.75;5096399;28;20040;-65
2023/06/28 11:24:40;;;;;;;11.73;4.70;;;;;;;20.55;83.90;101650.34;5112535;28;20036;-63